DAL1405 KPHX-KLAX
Flight info
| Callsign | DAL1405 |
|---|---|
| Flight time | 0h 54m |
| Altitude | 34000 |
| Route | KEENS3 WLVRN ESTWD HLYWD1 |
| Aircraft | B753/M-SDE2E3FGHIJ3J4J7RWXY/LB1 |
Departure
| Time | 2026-04-20 04:12 |
|---|---|
| Airport | Phoenix Sky Harbor International Airport (KPHX) |
Arrival
| Time | 2026-04-20 05:06 |
|---|---|
| Airport | Los Angeles International Airport (KLAX) |
| Time | Latitude | Longitude | Altitude | Speed | Heading |
|---|---|---|---|---|---|
| 2026-04-20 03:50 | 33.43374 | -112.01131 | 1135 ft | 0 kts | 0° |
| 2026-04-20 04:02 | 33.43361 | -112.01131 | 1134 ft | 2 kts | 360° |
| 2026-04-20 04:02 | 33.43346 | -112.01132 | 1134 ft | 2 kts | 8° |
| 2026-04-20 04:02 | 33.43331 | -112.01136 | 1134 ft | 2 kts | 15° |
| 2026-04-20 04:02 | 33.43317 | -112.01141 | 1135 ft | 2 kts | 18° |
| 2026-04-20 04:03 | 33.43302 | -112.01148 | 1135 ft | 2 kts | 19° |
| 2026-04-20 04:03 | 33.43291 | -112.01157 | 1135 ft | 2 kts | 59° |
| 2026-04-20 04:03 | 33.43286 | -112.01172 | 1135 ft | 0 kts | 87° |
| 2026-04-20 04:03 | 33.43287 | -112.01180 | 1134 ft | 1 kts | 91° |
| 2026-04-20 04:07 | 33.43287 | -112.01167 | 1135 ft | 4 kts | 90° |
| 2026-04-20 04:07 | 33.43286 | -112.01102 | 1135 ft | 10 kts | 90° |
| 2026-04-20 04:07 | 33.43286 | -112.00993 | 1135 ft | 15 kts | 90° |
| 2026-04-20 04:07 | 33.43286 | -112.00853 | 1136 ft | 17 kts | 90° |
| 2026-04-20 04:08 | 33.43285 | -112.00709 | 1135 ft | 17 kts | 90° |
| 2026-04-20 04:08 | 33.43286 | -112.00565 | 1134 ft | 17 kts | 90° |
| 2026-04-20 04:08 | 33.43285 | -112.00407 | 1133 ft | 20 kts | 90° |
| 2026-04-20 04:08 | 33.43288 | -112.00242 | 1133 ft | 19 kts | 92° |
| 2026-04-20 04:09 | 33.43282 | -112.00088 | 1133 ft | 18 kts | 89° |
| 2026-04-20 04:09 | 33.43286 | -111.99931 | 1131 ft | 18 kts | 92° |
| 2026-04-20 04:09 | 33.43284 | -111.99781 | 1131 ft | 18 kts | 89° |
| 2026-04-20 04:09 | 33.43285 | -111.99612 | 1131 ft | 21 kts | 90° |
| 2026-04-20 04:10 | 33.43284 | -111.99440 | 1132 ft | 19 kts | 90° |
| 2026-04-20 04:10 | 33.43256 | -111.99335 | 1133 ft | 12 kts | 155° |
| 2026-04-20 04:10 | 33.43183 | -111.99335 | 1134 ft | 8 kts | 187° |
| 2026-04-20 04:10 | 33.43115 | -111.99355 | 1134 ft | 10 kts | 213° |
| 2026-04-20 04:11 | 33.43104 | -111.99443 | 1132 ft | 20 kts | 270° |
| 2026-04-20 04:11 | 33.43104 | -111.99944 | 1131 ft | 100 kts | 270° |
| 2026-04-20 04:11 | 33.43106 | -112.01078 | 1135 ft | 172 kts | 270° |
| 2026-04-20 04:11 | 33.43095 | -112.02693 | 1573 ft | 203 kts | 268° |
| 2026-04-20 04:12 | 33.43076 | -112.04357 | 2565 ft | 205 kts | 267° |
| 2026-04-20 04:12 | 33.43032 | -112.06133 | 3002 ft | 226 kts | 265° |
| 2026-04-20 04:12 | 33.42661 | -112.07956 | 3753 ft | 229 kts | 248° |
| 2026-04-20 04:12 | 33.42084 | -112.09796 | 4290 ft | 248 kts | 249° |
| 2026-04-20 04:13 | 33.41473 | -112.11813 | 4883 ft | 264 kts | 249° |
| 2026-04-20 04:13 | 33.40830 | -112.13903 | 5551 ft | 277 kts | 248° |
| 2026-04-20 04:13 | 33.40167 | -112.16055 | 6426 ft | 281 kts | 248° |
| 2026-04-20 04:13 | 33.39496 | -112.18253 | 7220 ft | 287 kts | 252° |
| 2026-04-20 04:14 | 33.39277 | -112.20652 | 8005 ft | 296 kts | 275° |
| 2026-04-20 04:14 | 33.39606 | -112.23077 | 8779 ft | 303 kts | 278° |
| 2026-04-20 04:14 | 33.39958 | -112.25573 | 9600 ft | 307 kts | 278° |
| 2026-04-20 04:14 | 33.40315 | -112.28062 | 10423 ft | 312 kts | 278° |
| 2026-04-20 04:15 | 33.40700 | -112.30730 | 10816 ft | 333 kts | 278° |
| 2026-04-20 04:15 | 33.41109 | -112.33515 | 11237 ft | 351 kts | 278° |
| 2026-04-20 04:15 | 33.41533 | -112.36391 | 11941 ft | 358 kts | 279° |
| 2026-04-20 04:15 | 33.41969 | -112.39339 | 12699 ft | 364 kts | 278° |
| 2026-04-20 04:16 | 33.42414 | -112.42352 | 13557 ft | 368 kts | 278° |
| 2026-04-20 04:16 | 33.42856 | -112.45355 | 14441 ft | 369 kts | 278° |
| 2026-04-20 04:16 | 33.43293 | -112.48324 | 15308 ft | 370 kts | 278° |
| 2026-04-20 04:16 | 33.43739 | -112.51357 | 16066 ft | 374 kts | 278° |
| 2026-04-20 04:17 | 33.44188 | -112.54413 | 16909 ft | 374 kts | 278° |
| 2026-04-20 04:17 | 33.44640 | -112.57501 | 17613 ft | 379 kts | 277° |
| 2026-04-20 04:17 | 33.44997 | -112.60586 | 18360 ft | 379 kts | 270° |
| 2026-04-20 04:17 | 33.45051 | -112.63760 | 19046 ft | 382 kts | 269° |
| 2026-04-20 04:18 | 33.45099 | -112.66939 | 19743 ft | 384 kts | 269° |
| 2026-04-20 04:18 | 33.45115 | -112.67991 | 19979 ft | 385 kts | 269° |
| 2026-04-20 04:18 | 33.45188 | -112.73325 | 21088 ft | 390 kts | 269° |
| 2026-04-20 04:18 | 33.45232 | -112.76608 | 21744 ft | 393 kts | 269° |
| 2026-04-20 04:19 | 33.45490 | -112.79864 | 22362 ft | 399 kts | 282° |
| 2026-04-20 04:19 | 33.46365 | -112.82979 | 22962 ft | 403 kts | 291° |
| 2026-04-20 04:19 | 33.47448 | -112.86076 | 23584 ft | 406 kts | 291° |
| 2026-04-20 04:19 | 33.48532 | -112.89213 | 24100 ft | 410 kts | 291° |
| 2026-04-20 04:20 | 33.49643 | -112.92405 | 24638 ft | 414 kts | 291° |
| 2026-04-20 04:20 | 33.50746 | -112.95567 | 25220 ft | 415 kts | 291° |
| 2026-04-20 04:20 | 33.51857 | -112.98749 | 25711 ft | 419 kts | 291° |
| 2026-04-20 04:20 | 33.52989 | -113.01996 | 26197 ft | 421 kts | 291° |
| 2026-04-20 04:21 | 33.54118 | -113.05231 | 26687 ft | 424 kts | 291° |
| 2026-04-20 04:21 | 33.55257 | -113.08503 | 27165 ft | 427 kts | 291° |
| 2026-04-20 04:21 | 33.56398 | -113.11780 | 27609 ft | 431 kts | 291° |
| 2026-04-20 04:21 | 33.57557 | -113.15112 | 28092 ft | 433 kts | 291° |
| 2026-04-20 04:22 | 33.58724 | -113.18471 | 28506 ft | 436 kts | 291° |
| 2026-04-20 04:22 | 33.59887 | -113.21822 | 28975 ft | 438 kts | 291° |
| 2026-04-20 04:22 | 33.61056 | -113.25191 | 29414 ft | 441 kts | 291° |
| 2026-04-20 04:22 | 33.62228 | -113.28576 | 29823 ft | 443 kts | 291° |
| 2026-04-20 04:23 | 33.63409 | -113.31990 | 30225 ft | 446 kts | 291° |
| 2026-04-20 04:23 | 33.64612 | -113.35471 | 30581 ft | 450 kts | 291° |
| 2026-04-20 04:23 | 33.65796 | -113.38898 | 30950 ft | 452 kts | 291° |
| 2026-04-20 04:23 | 33.67011 | -113.42423 | 31306 ft | 455 kts | 291° |
| 2026-04-20 04:24 | 33.68201 | -113.45877 | 31722 ft | 455 kts | 291° |
| 2026-04-20 04:24 | 33.69423 | -113.49423 | 32181 ft | 455 kts | 290° |
| 2026-04-20 04:24 | 33.70614 | -113.52889 | 32646 ft | 453 kts | 290° |
| 2026-04-20 04:24 | 33.71824 | -113.56415 | 33038 ft | 454 kts | 290° |
| 2026-04-20 04:25 | 33.73023 | -113.59911 | 33381 ft | 454 kts | 291° |
| 2026-04-20 04:25 | 33.74213 | -113.63387 | 33808 ft | 453 kts | 290° |
| 2026-04-20 04:25 | 33.75397 | -113.66843 | 34020 ft | 451 kts | 290° |
| 2026-04-20 04:25 | 33.76587 | -113.70325 | 34032 ft | 450 kts | 290° |
| 2026-04-20 04:26 | 33.78947 | -113.77242 | 34027 ft | 446 kts | 290° |
| 2026-04-20 04:26 | 33.81298 | -113.84141 | 34038 ft | 447 kts | 290° |
| 2026-04-20 04:27 | 33.83638 | -113.91024 | 34036 ft | 447 kts | 290° |
| 2026-04-20 04:27 | 33.85986 | -113.97942 | 34012 ft | 448 kts | 289° |
| 2026-04-20 04:28 | 33.88318 | -114.04827 | 34016 ft | 448 kts | 290° |
| 2026-04-20 04:28 | 33.90509 | -114.11848 | 34014 ft | 444 kts | 281° |
| 2026-04-20 04:29 | 33.91804 | -114.19084 | 33987 ft | 443 kts | 279° |
| 2026-04-20 04:29 | 33.93053 | -114.26311 | 33983 ft | 442 kts | 279° |
| 2026-04-20 04:30 | 33.94281 | -114.33527 | 33986 ft | 440 kts | 279° |
| 2026-04-20 04:30 | 33.95491 | -114.40691 | 33988 ft | 439 kts | 279° |
| 2026-04-20 04:31 | 33.96707 | -114.47924 | 33986 ft | 438 kts | 279° |
| 2026-04-20 04:31 | 33.97909 | -114.55107 | 33992 ft | 438 kts | 280° |
| 2026-04-20 04:32 | 33.99102 | -114.62264 | 33985 ft | 435 kts | 280° |
| 2026-04-20 04:32 | 34.00283 | -114.69375 | 34009 ft | 434 kts | 279° |
| 2026-04-20 04:33 | 34.01464 | -114.76510 | 34006 ft | 435 kts | 280° |
| 2026-04-20 04:33 | 34.02629 | -114.83578 | 34013 ft | 434 kts | 280° |
| 2026-04-20 04:34 | 34.03804 | -114.90730 | 34016 ft | 434 kts | 280° |
| 2026-04-20 04:34 | 34.04963 | -114.97822 | 34030 ft | 435 kts | 280° |
| 2026-04-20 04:35 | 34.06132 | -115.04984 | 34029 ft | 435 kts | 280° |
| 2026-04-20 04:35 | 34.07290 | -115.12095 | 34013 ft | 431 kts | 280° |
| 2026-04-20 04:36 | 34.09008 | -115.22695 | 34015 ft | 431 kts | 280° |
| 2026-04-20 04:37 | 34.10148 | -115.29763 | 34012 ft | 430 kts | 280° |
| 2026-04-20 04:37 | 34.11279 | -115.36803 | 34030 ft | 430 kts | 280° |
| 2026-04-20 04:38 | 34.12407 | -115.43854 | 34051 ft | 427 kts | 281° |
| 2026-04-20 04:38 | 34.13532 | -115.50909 | 34064 ft | 429 kts | 281° |
| 2026-04-20 04:39 | 34.14651 | -115.57954 | 34073 ft | 428 kts | 281° |
| 2026-04-20 04:39 | 34.15762 | -115.64977 | 34087 ft | 426 kts | 281° |
| 2026-04-20 04:40 | 34.15981 | -115.72100 | 34127 ft | 427 kts | 264° |
| 2026-04-20 04:40 | 34.15359 | -115.79150 | 34099 ft | 420 kts | 264° |
| 2026-04-20 04:40 | 34.15039 | -115.82624 | 34119 ft | 408 kts | 264° |
| 2026-04-20 04:41 | 34.14727 | -115.85956 | 34116 ft | 402 kts | 264° |
| 2026-04-20 04:41 | 34.14077 | -115.92747 | 33679 ft | 417 kts | 264° |
| 2026-04-20 04:41 | 34.13740 | -115.96207 | 33219 ft | 418 kts | 264° |
| 2026-04-20 04:42 | 34.13401 | -115.99677 | 32799 ft | 413 kts | 265° |
| 2026-04-20 04:42 | 34.13069 | -116.03083 | 32318 ft | 412 kts | 265° |
| 2026-04-20 04:42 | 34.12733 | -116.06527 | 31827 ft | 414 kts | 265° |
| 2026-04-20 04:42 | 34.12395 | -116.09969 | 31338 ft | 416 kts | 265° |
| 2026-04-20 04:43 | 34.12057 | -116.13400 | 30857 ft | 416 kts | 265° |
| 2026-04-20 04:43 | 34.11713 | -116.16880 | 30375 ft | 413 kts | 265° |
| 2026-04-20 04:43 | 34.11375 | -116.20287 | 29907 ft | 409 kts | 265° |
| 2026-04-20 04:43 | 34.11043 | -116.23628 | 29440 ft | 405 kts | 265° |
| 2026-04-20 04:44 | 34.10709 | -116.26989 | 28991 ft | 402 kts | 265° |
| 2026-04-20 04:44 | 34.10376 | -116.30303 | 28549 ft | 399 kts | 264° |
| 2026-04-20 04:44 | 34.10024 | -116.33616 | 28069 ft | 398 kts | 264° |
| 2026-04-20 04:44 | 34.09670 | -116.36938 | 27585 ft | 395 kts | 264° |
| 2026-04-20 04:45 | 34.09325 | -116.40170 | 27123 ft | 392 kts | 264° |
| 2026-04-20 04:45 | 34.08976 | -116.43426 | 26663 ft | 388 kts | 264° |
| 2026-04-20 04:45 | 34.08634 | -116.46605 | 26173 ft | 386 kts | 264° |
| 2026-04-20 04:45 | 34.08290 | -116.49799 | 25679 ft | 384 kts | 263° |
| 2026-04-20 04:46 | 34.07945 | -116.52995 | 25225 ft | 380 kts | 263° |
| 2026-04-20 04:46 | 34.07609 | -116.56107 | 24798 ft | 377 kts | 263° |
| 2026-04-20 04:46 | 34.07278 | -116.59209 | 24424 ft | 374 kts | 264° |
| 2026-04-20 04:46 | 34.06987 | -116.62347 | 23975 ft | 376 kts | 264° |
| 2026-04-20 04:47 | 34.06701 | -116.65463 | 23525 ft | 373 kts | 263° |
| 2026-04-20 04:47 | 34.06417 | -116.68531 | 23098 ft | 368 kts | 263° |
| 2026-04-20 04:47 | 34.06132 | -116.71597 | 22679 ft | 364 kts | 263° |
| 2026-04-20 04:47 | 34.05852 | -116.74600 | 22282 ft | 363 kts | 262° |
| 2026-04-20 04:48 | 34.05571 | -116.77595 | 21887 ft | 363 kts | 262° |
| 2026-04-20 04:48 | 34.05286 | -116.80643 | 21471 ft | 363 kts | 262° |
| 2026-04-20 04:48 | 34.05006 | -116.83614 | 21055 ft | 362 kts | 262° |
| 2026-04-20 04:48 | 34.04721 | -116.86638 | 20633 ft | 360 kts | 262° |
| 2026-04-20 04:49 | 34.04425 | -116.89581 | 20234 ft | 357 kts | 260° |
| 2026-04-20 04:49 | 34.04036 | -116.92557 | 19802 ft | 357 kts | 259° |
| 2026-04-20 04:49 | 34.03654 | -116.95491 | 19371 ft | 356 kts | 259° |
| 2026-04-20 04:49 | 34.03276 | -116.98400 | 18950 ft | 353 kts | 259° |
| 2026-04-20 04:50 | 34.02896 | -117.01324 | 18527 ft | 350 kts | 259° |
| 2026-04-20 04:50 | 34.02533 | -117.04190 | 18131 ft | 349 kts | 259° |
| 2026-04-20 04:50 | 34.02193 | -117.07083 | 17728 ft | 349 kts | 259° |
| 2026-04-20 04:50 | 34.01853 | -117.09963 | 17318 ft | 347 kts | 259° |
| 2026-04-20 04:51 | 34.01511 | -117.12837 | 16911 ft | 346 kts | 259° |
| 2026-04-20 04:51 | 34.01176 | -117.15659 | 16511 ft | 343 kts | 259° |
| 2026-04-20 04:51 | 34.00836 | -117.18515 | 16104 ft | 341 kts | 259° |
| 2026-04-20 04:51 | 34.00502 | -117.21320 | 15699 ft | 339 kts | 259° |
| 2026-04-20 04:52 | 34.00167 | -117.24114 | 15327 ft | 337 kts | 259° |
| 2026-04-20 04:52 | 33.99833 | -117.26910 | 14922 ft | 337 kts | 259° |
| 2026-04-20 04:52 | 33.99500 | -117.29680 | 14526 ft | 336 kts | 259° |
| 2026-04-20 04:52 | 33.99172 | -117.32439 | 14161 ft | 334 kts | 259° |
| 2026-04-20 04:53 | 33.98847 | -117.35216 | 13770 ft | 333 kts | 259° |
| 2026-04-20 04:53 | 33.98524 | -117.37967 | 13383 ft | 331 kts | 259° |
| 2026-04-20 04:53 | 33.98205 | -117.40676 | 13004 ft | 329 kts | 259° |
| 2026-04-20 04:53 | 33.97884 | -117.43401 | 12613 ft | 326 kts | 259° |
| 2026-04-20 04:54 | 33.97566 | -117.46090 | 12229 ft | 323 kts | 259° |
| 2026-04-20 04:54 | 33.97435 | -117.48764 | 11855 ft | 325 kts | 273° |
| 2026-04-20 04:54 | 33.97903 | -117.51427 | 11543 ft | 326 kts | 283° |
| 2026-04-20 04:54 | 33.98513 | -117.54060 | 11216 ft | 328 kts | 283° |
| 2026-04-20 04:55 | 33.99123 | -117.56707 | 10855 ft | 327 kts | 283° |
| 2026-04-20 04:55 | 33.99735 | -117.59332 | 10490 ft | 325 kts | 283° |
| 2026-04-20 04:55 | 34.00344 | -117.61928 | 10202 ft | 317 kts | 283° |
| 2026-04-20 04:55 | 34.00924 | -117.64400 | 10166 ft | 302 kts | 283° |
| 2026-04-20 04:56 | 34.01487 | -117.66788 | 10140 ft | 286 kts | 282° |
| 2026-04-20 04:56 | 34.01991 | -117.69041 | 10097 ft | 279 kts | 275° |
| 2026-04-20 04:56 | 34.01994 | -117.71383 | 9949 ft | 288 kts | 260° |
| 2026-04-20 04:56 | 34.01774 | -117.73812 | 9466 ft | 294 kts | 261° |
| 2026-04-20 04:57 | 34.01555 | -117.76274 | 9070 ft | 293 kts | 261° |
| 2026-04-20 04:57 | 34.01334 | -117.78666 | 8827 ft | 288 kts | 261° |
| 2026-04-20 04:57 | 34.01104 | -117.81073 | 8452 ft | 287 kts | 261° |
| 2026-04-20 04:57 | 34.00878 | -117.83433 | 8105 ft | 285 kts | 260° |
| 2026-04-20 04:58 | 34.00649 | -117.85799 | 7841 ft | 281 kts | 260° |
| 2026-04-20 04:58 | 34.00420 | -117.88142 | 7550 ft | 278 kts | 260° |
| 2026-04-20 04:58 | 34.00194 | -117.90440 | 7153 ft | 280 kts | 261° |
| 2026-04-20 04:58 | 33.99973 | -117.92721 | 6990 ft | 271 kts | 261° |
| 2026-04-20 04:59 | 33.99748 | -117.95002 | 6550 ft | 275 kts | 261° |
| 2026-04-20 04:59 | 33.99527 | -117.97257 | 6221 ft | 272 kts | 261° |
| 2026-04-20 04:59 | 33.99308 | -117.99532 | 5900 ft | 271 kts | 261° |
| 2026-04-20 04:59 | 33.99091 | -118.01759 | 5548 ft | 270 kts | 261° |
| 2026-04-20 05:00 | 33.98872 | -118.04002 | 5183 ft | 267 kts | 261° |
| 2026-04-20 05:00 | 33.98655 | -118.06206 | 4853 ft | 266 kts | 262° |
| 2026-04-20 05:00 | 33.98436 | -118.08418 | 4489 ft | 274 kts | 262° |
| 2026-04-20 05:00 | 33.98214 | -118.10644 | 4196 ft | 266 kts | 262° |
| 2026-04-20 05:01 | 33.98000 | -118.12801 | 4073 ft | 252 kts | 262° |
| 2026-04-20 05:01 | 33.97796 | -118.14847 | 3761 ft | 243 kts | 262° |
| 2026-04-20 05:01 | 33.97602 | -118.16771 | 3444 ft | 219 kts | 262° |
| 2026-04-20 05:01 | 33.97429 | -118.18498 | 3255 ft | 194 kts | 263° |
| 2026-04-20 05:02 | 33.97276 | -118.20008 | 3099 ft | 172 kts | 263° |
| 2026-04-20 05:02 | 33.97135 | -118.21405 | 2891 ft | 170 kts | 262° |
| 2026-04-20 05:02 | 33.96989 | -118.22846 | 2730 ft | 174 kts | 262° |
| 2026-04-20 05:02 | 33.96842 | -118.24288 | 2551 ft | 174 kts | 262° |
| 2026-04-20 05:03 | 33.96697 | -118.25723 | 2375 ft | 172 kts | 262° |
| 2026-04-20 05:03 | 33.96550 | -118.27159 | 2194 ft | 173 kts | 262° |
| 2026-04-20 05:03 | 33.96406 | -118.28592 | 1986 ft | 173 kts | 262° |
| 2026-04-20 05:03 | 33.96262 | -118.30010 | 1771 ft | 171 kts | 262° |
| 2026-04-20 05:04 | 33.96115 | -118.31435 | 1553 ft | 170 kts | 262° |
| 2026-04-20 05:04 | 33.95973 | -118.32828 | 1334 ft | 167 kts | 262° |
| 2026-04-20 05:04 | 33.95831 | -118.34212 | 1115 ft | 165 kts | 262° |
| 2026-04-20 05:04 | 33.95691 | -118.35575 | 901 ft | 163 kts | 262° |
| 2026-04-20 05:05 | 33.95553 | -118.36915 | 686 ft | 161 kts | 262° |
| 2026-04-20 05:05 | 33.95410 | -118.38253 | 482 ft | 159 kts | 262° |
| 2026-04-20 05:05 | 33.95277 | -118.39567 | 268 ft | 158 kts | 262° |
| 2026-04-20 05:05 | 33.95142 | -118.40848 | 131 ft | 148 kts | 263° |
| 2026-04-20 05:06 | 33.95034 | -118.41917 | 125 ft | 101 kts | 262° |
| 2026-04-20 05:06 | 33.94957 | -118.42487 | 119 ft | 43 kts | 248° |
| 2026-04-20 05:06 | 33.94856 | -118.42674 | 116 ft | 20 kts | 229° |
| 2026-04-20 05:06 | 33.94737 | -118.42775 | 112 ft | 18 kts | 197° |
| 2026-04-20 05:07 | 33.94662 | -118.42776 | 112 ft | 0 kts | 165° |
| 2026-04-20 05:07 | 33.94638 | -118.42727 | 112 ft | 11 kts | 90° |
| 2026-04-20 05:07 | 33.94644 | -118.42628 | 113 ft | 12 kts | 84° |
| 2026-04-20 05:07 | 33.94654 | -118.42526 | 115 ft | 11 kts | 82° |
| 2026-04-20 05:08 | 33.94663 | -118.42435 | 117 ft | 12 kts | 84° |
| 2026-04-20 05:08 | 33.94677 | -118.42292 | 119 ft | 22 kts | 83° |
| 2026-04-20 05:08 | 33.94698 | -118.42076 | 121 ft | 27 kts | 82° |
| 2026-04-20 05:08 | 33.94722 | -118.41858 | 122 ft | 25 kts | 83° |
| 2026-04-20 05:09 | 33.94743 | -118.41653 | 122 ft | 24 kts | 83° |
| 2026-04-20 05:09 | 33.94764 | -118.41460 | 124 ft | 21 kts | 81° |
| 2026-04-20 05:09 | 33.94794 | -118.41290 | 125 ft | 20 kts | 81° |
| 2026-04-20 05:09 | 33.94812 | -118.41124 | 125 ft | 19 kts | 83° |
| 2026-04-20 05:10 | 33.94829 | -118.40962 | 125 ft | 19 kts | 83° |
| 2026-04-20 05:10 | 33.94844 | -118.40804 | 125 ft | 18 kts | 84° |
| 2026-04-20 05:10 | 33.94858 | -118.40661 | 122 ft | 14 kts | 84° |
| 2026-04-20 05:10 | 33.94835 | -118.40606 | 122 ft | 7 kts | 171° |
| 2026-04-20 05:11 | 33.94791 | -118.40587 | 122 ft | 6 kts | 133° |
| 2026-04-20 05:11 | 33.94790 | -118.40546 | 122 ft | 6 kts | 84° |
| 2026-04-20 05:11 | 33.94793 | -118.40468 | 122 ft | 9 kts | 100° |
| 2026-04-20 05:11 | 33.94783 | -118.40460 | 121 ft | 2 kts | 178° |
| 2026-04-20 05:12 | 33.94743 | -118.40451 | 121 ft | 4 kts | 163° |
| 2026-04-20 05:12 | 33.94737 | -118.40449 | 121 ft | 0 kts | 163° |